createdAt,value
2018-06-17T00:00:25.226Z,18.40
2018-06-17T00:03:00.349Z,18.50
2018-06-17T00:05:35.544Z,18.50
2018-06-17T00:10:45.260Z,18.70
2018-06-17T00:13:20.354Z,18.70
2018-06-17T00:15:55.309Z,18.60
2018-06-17T00:18:30.532Z,18.70
2018-06-17T00:21:05.736Z,18.60
2018-06-17T00:23:40.723Z,18.50
2018-06-17T00:26:15.752Z,18.50
2018-06-17T00:28:50.835Z,18.30
2018-06-17T00:31:25.852Z,18.20
2018-06-17T00:34:01.809Z,18.10
2018-06-17T00:36:36.856Z,18.20
2018-06-17T00:39:12.236Z,18.10
2018-06-17T00:41:47.221Z,17.90
2018-06-17T00:44:22.300Z,17.80
2018-06-17T00:46:58.181Z,17.90
2018-06-17T00:49:33.123Z,17.80
2018-06-17T00:52:08.249Z,17.60
2018-06-17T00:57:29.441Z,17.70
2018-06-17T01:00:04.973Z,17.70
2018-06-17T01:02:40.053Z,17.60
2018-06-17T01:05:15.589Z,17.70
2018-06-17T01:07:50.637Z,17.60
2018-06-17T01:10:25.547Z,17.40
2018-06-17T01:13:00.684Z,17.40
2018-06-17T01:15:35.740Z,17.50
2018-06-17T01:18:10.813Z,17.50
2018-06-17T01:20:45.951Z,17.50
2018-06-17T01:23:21.121Z,17.40
2018-06-17T01:25:56.328Z,17.50
2018-06-17T01:28:31.444Z,17.50
2018-06-17T01:31:06.528Z,17.40
2018-06-17T01:33:41.531Z,17.60
2018-06-17T01:36:16.617Z,17.40
2018-06-17T01:38:51.787Z,17.40
2018-06-17T01:41:26.759Z,17.30
2018-06-17T01:44:01.845Z,17.30
2018-06-17T01:46:36.921Z,17.30
2018-06-17T01:51:46.758Z,17.20
2018-06-17T01:54:21.757Z,16.90
2018-06-17T01:56:56.852Z,16.90
2018-06-17T01:59:31.972Z,17.10
2018-06-17T02:02:07.177Z,17.00
2018-06-17T02:04:47.801Z,17.10
2018-06-17T02:07:28.235Z,16.90
2018-06-17T02:10:08.951Z,16.80
2018-06-17T02:12:44.135Z,16.90
2018-06-17T02:15:19.237Z,16.80
2018-06-17T02:17:54.323Z,16.70
2018-06-17T02:20:29.369Z,16.80
2018-06-17T02:23:04.456Z,16.70
2018-06-17T02:25:39.419Z,16.60
2018-06-17T02:28:14.688Z,16.70
2018-06-17T02:30:49.836Z,16.70
2018-06-17T02:33:25.016Z,16.70
2018-06-17T02:36:00.061Z,16.70
2018-06-17T02:38:35.188Z,16.80
2018-06-17T02:41:10.407Z,16.70
2018-06-17T02:43:45.532Z,16.60
2018-06-17T02:46:25.912Z,16.50
2018-06-17T02:49:33.299Z,16.50
2018-06-17T02:52:13.988Z,16.40
2018-06-17T02:54:49.112Z,16.10
2018-06-17T02:57:24.068Z,16.10
2018-06-17T02:59:59.176Z,16.30
2018-06-17T03:02:34.226Z,16.50
2018-06-17T03:05:09.334Z,16.50
2018-06-17T03:07:44.309Z,16.50
2018-06-17T03:10:19.464Z,16.30
2018-06-17T03:12:54.605Z,16.10
2018-06-17T03:18:04.290Z,16.20
2018-06-17T03:20:39.208Z,16.10
2018-06-17T03:23:14.132Z,16.40
2018-06-17T03:25:54.796Z,16.40
2018-06-17T03:28:35.363Z,16.50
2018-06-17T03:31:15.824Z,16.50
2018-06-17T03:33:55.758Z,16.40
2018-06-17T03:36:30.676Z,16.20
2018-06-17T03:39:07.095Z,16.40
2018-06-17T03:41:42.145Z,16.60
2018-06-17T03:44:17.320Z,16.50
2018-06-17T03:46:52.496Z,16.40
2018-06-17T03:49:27.588Z,16.50
2018-06-17T03:52:02.748Z,16.40
2018-06-17T03:54:37.726Z,16.50
2018-06-17T03:57:12.866Z,16.40
2018-06-17T03:59:47.947Z,16.60
2018-06-17T04:02:23.180Z,16.60
2018-06-17T04:05:03.613Z,16.60
2018-06-17T04:07:38.945Z,16.70
2018-06-17T04:10:14.043Z,16.80
2018-06-17T04:12:48.997Z,16.60
2018-06-17T04:15:24.151Z,16.50
2018-06-17T04:17:59.086Z,16.60
2018-06-17T04:20:34.144Z,16.70
2018-06-17T04:23:09.216Z,16.90
2018-06-17T04:25:44.657Z,16.80
2018-06-17T04:28:19.663Z,16.90
2018-06-17T04:30:54.795Z,16.90
2018-06-17T04:33:29.931Z,16.90
2018-06-17T04:36:05.328Z,17.10
2018-06-17T04:38:40.367Z,17.30
2018-06-17T04:41:15.514Z,17.40
2018-06-17T04:43:50.524Z,17.10
2018-06-17T04:49:00.931Z,16.80
2018-06-17T04:51:36.069Z,16.70
2018-06-17T04:54:11.552Z,16.90
2018-06-17T04:57:35.172Z,16.90
2018-06-17T05:00:10.094Z,17.90
2018-06-17T05:02:45.177Z,17.90
2018-06-17T05:05:20.147Z,18.30
2018-06-17T05:07:55.248Z,19.10
2018-06-17T05:10:30.292Z,20.00
2018-06-17T05:13:05.388Z,19.60
2018-06-17T05:15:40.454Z,20.10
2018-06-17T05:18:15.448Z,20.20
2018-06-17T05:20:50.497Z,20.00
2018-06-17T05:23:25.664Z,19.10
2018-06-17T05:26:00.704Z,19.00
2018-06-17T05:28:35.788Z,18.90
2018-06-17T05:31:10.859Z,19.00
2018-06-17T05:33:45.839Z,18.90
2018-06-17T05:36:20.773Z,18.90
2018-06-17T05:38:55.932Z,19.10
2018-06-17T05:41:30.959Z,18.60
2018-06-17T05:46:41.175Z,18.70
2018-06-17T05:49:16.212Z,18.60
2018-06-17T05:51:51.324Z,18.80
2018-06-17T05:54:26.475Z,19.20
2018-06-17T05:57:01.636Z,19.00
2018-06-17T05:59:36.802Z,19.20
2018-06-17T06:02:12.043Z,19.20
2018-06-17T06:04:47.000Z,19.20
2018-06-17T06:07:21.924Z,18.70
2018-06-17T06:09:56.979Z,18.70
2018-06-17T06:12:32.025Z,18.80
2018-06-17T06:15:07.026Z,19.10
2018-06-17T06:17:42.448Z,19.20
2018-06-17T06:20:17.392Z,19.00
2018-06-17T06:22:52.620Z,18.80
2018-06-17T06:25:27.565Z,19.20
2018-06-17T06:28:02.704Z,19.10
2018-06-17T06:30:37.765Z,19.30
2018-06-17T06:33:12.844Z,19.40
2018-06-17T06:35:47.825Z,19.50
2018-06-17T06:38:22.744Z,19.40
2018-06-17T06:40:57.887Z,19.40
2018-06-17T06:43:32.994Z,19.40
2018-06-17T06:46:08.068Z,19.60
2018-06-17T06:48:43.160Z,19.60
2018-06-17T06:51:18.300Z,19.40
2018-06-17T06:53:53.376Z,19.70
2018-06-17T06:56:28.300Z,19.70
2018-06-17T06:59:03.243Z,19.50
2018-06-17T07:01:49.760Z,19.80
2018-06-17T07:04:36.212Z,19.60
2018-06-17T07:08:22.959Z,19.30
2018-06-17T07:10:57.933Z,19.50
2018-06-17T07:13:33.076Z,19.60
2018-06-17T07:16:19.532Z,19.80
2018-06-17T07:18:54.584Z,19.70
2018-06-17T07:21:29.340Z,19.90
2018-06-17T07:24:04.244Z,20.10
2018-06-17T07:26:51.762Z,20.20
2018-06-17T07:29:39.264Z,20.50
2018-06-17T07:32:14.008Z,20.60
2018-06-17T07:34:48.959Z,20.70
2018-06-17T07:37:23.728Z,20.70
2018-06-17T07:42:50.099Z,20.60
2018-06-17T07:45:24.963Z,20.70
2018-06-17T07:47:59.861Z,20.50
2018-06-17T07:50:46.093Z,20.60
2018-06-17T07:55:56.644Z,20.50
2018-06-17T07:58:31.573Z,20.70
2018-06-17T08:01:06.492Z,21.00
2018-06-17T08:03:41.432Z,21.20
2018-06-17T08:06:16.234Z,21.40
2018-06-17T08:08:51.167Z,21.70
2018-06-17T08:11:26.128Z,22.10
2018-06-17T08:14:01.299Z,22.20
2018-06-17T08:16:36.116Z,21.90
2018-06-17T08:19:11.043Z,22.20
2018-06-17T08:21:45.830Z,22.40
2018-06-17T08:24:20.718Z,22.40
2018-06-17T08:26:55.794Z,21.90
2018-06-17T08:29:30.552Z,21.90
2018-06-17T08:32:05.408Z,22.00
2018-06-17T08:37:14.864Z,22.00
2018-06-17T08:39:49.595Z,22.10
2018-06-17T08:42:24.371Z,22.10
2018-06-17T08:44:59.144Z,21.70
2018-06-17T08:50:08.608Z,21.30
2018-06-17T08:52:43.404Z,20.60
2018-06-17T08:55:18.371Z,20.70
2018-06-17T08:57:53.483Z,20.90
2018-06-17T09:00:28.360Z,20.80
2018-06-17T09:03:03.522Z,21.00
2018-06-17T09:05:38.529Z,20.80
2018-06-17T09:08:13.511Z,20.90
2018-06-17T09:10:48.252Z,20.90
2018-06-17T09:13:22.997Z,21.10
2018-06-17T09:15:57.724Z,20.90
2018-06-17T09:18:32.507Z,21.20
2018-06-17T09:21:07.277Z,21.10
2018-06-17T09:23:42.120Z,21.00
2018-06-17T09:26:17.064Z,20.60
2018-06-17T09:28:51.816Z,21.00
2018-06-17T09:31:26.608Z,20.50
2018-06-17T09:34:01.440Z,20.50
2018-06-17T09:36:37.032Z,20.80
2018-06-17T09:39:11.889Z,20.70
2018-06-17T09:41:46.755Z,20.70
2018-06-17T09:44:21.607Z,20.90
2018-06-17T09:46:56.406Z,20.60
2018-06-17T09:49:31.266Z,20.80
2018-06-17T09:52:06.088Z,21.20
2018-06-17T09:54:40.940Z,21.40
2018-06-17T09:57:15.678Z,21.30
2018-06-17T09:59:50.630Z,21.50
2018-06-17T10:02:25.360Z,21.60
2018-06-17T10:05:00.196Z,21.50
2018-06-17T10:07:35.204Z,21.60
2018-06-17T10:10:21.299Z,21.50
2018-06-17T10:15:30.727Z,21.70
2018-06-17T10:18:06.344Z,21.30
2018-06-17T10:20:41.568Z,21.50
2018-06-17T10:23:16.732Z,21.50
2018-06-17T10:25:51.884Z,21.50
2018-06-17T10:28:27.830Z,21.30
2018-06-17T10:31:04.295Z,21.10
2018-06-17T10:33:39.412Z,21.50
2018-06-17T10:36:14.503Z,21.30
2018-06-17T10:38:49.430Z,21.30
2018-06-17T10:43:59.063Z,21.20
2018-06-17T10:49:09.028Z,21.50
2018-06-17T10:51:44.184Z,21.50
2018-06-17T10:54:19.212Z,21.50
2018-06-17T10:56:54.255Z,21.50
2018-06-17T10:59:29.376Z,21.70
2018-06-17T11:02:04.563Z,21.80
2018-06-17T11:04:39.704Z,21.80
2018-06-17T11:07:14.721Z,21.90
2018-06-17T11:09:49.720Z,22.00
2018-06-17T11:12:24.781Z,22.30
2018-06-17T11:15:00.105Z,22.00
2018-06-17T11:17:35.080Z,21.60
2018-06-17T11:20:10.071Z,21.60
2018-06-17T11:22:45.161Z,21.40
2018-06-17T11:25:20.236Z,21.30
2018-06-17T11:27:55.317Z,21.10
2018-06-17T11:30:30.296Z,21.30
2018-06-17T11:33:05.593Z,21.40
2018-06-17T11:35:40.620Z,21.50
2018-06-17T11:38:15.748Z,21.50
2018-06-17T11:40:50.743Z,21.50
2018-06-17T11:43:25.882Z,21.70
2018-06-17T11:46:00.936Z,21.60
2018-06-17T11:48:36.028Z,21.70
2018-06-17T11:51:11.009Z,21.80
2018-06-17T11:53:46.016Z,21.60
2018-06-17T11:56:20.977Z,21.50
2018-06-17T11:58:56.116Z,21.30
2018-06-17T12:01:31.244Z,21.40
2018-06-17T12:06:41.026Z,21.40
2018-06-17T12:09:15.982Z,21.70
2018-06-17T12:11:51.126Z,21.60
2018-06-17T12:14:26.206Z,21.60
2018-06-17T12:17:01.142Z,21.40
2018-06-17T12:19:36.220Z,21.80
2018-06-17T12:22:11.212Z,21.40
2018-06-17T12:24:46.160Z,21.40
2018-06-17T12:27:21.210Z,21.60
2018-06-17T12:29:56.371Z,21.90
2018-06-17T12:32:31.408Z,22.00
2018-06-17T12:35:06.368Z,22.20
2018-06-17T12:40:16.248Z,22.40
2018-06-17T12:42:51.388Z,22.20
2018-06-17T12:45:26.412Z,22.20
2018-06-17T12:48:01.384Z,22.50
2018-06-17T12:50:36.574Z,22.60
2018-06-17T12:53:11.649Z,22.50
2018-06-17T12:55:46.792Z,22.20
2018-06-17T12:58:22.104Z,22.10
2018-06-17T13:00:57.440Z,22.20
2018-06-17T13:03:32.380Z,22.00
2018-06-17T13:06:07.622Z,21.70
2018-06-17T13:08:42.743Z,21.30
2018-06-17T13:11:17.832Z,21.70
2018-06-17T13:13:52.925Z,21.70
2018-06-17T13:16:28.022Z,21.30
2018-06-17T13:19:03.276Z,21.20
2018-06-17T13:21:38.309Z,21.30
2018-06-17T13:24:13.469Z,21.50
2018-06-17T13:26:48.415Z,21.70
2018-06-17T13:29:23.509Z,21.40
2018-06-17T13:31:58.560Z,21.40
2018-06-17T13:34:33.748Z,21.40
2018-06-17T13:37:08.830Z,21.30
2018-06-17T13:39:43.971Z,21.50
2018-06-17T13:42:19.075Z,21.40
2018-06-17T13:44:54.148Z,21.20
2018-06-17T13:47:29.308Z,21.30
2018-06-17T13:50:04.600Z,21.70
2018-06-17T13:52:39.705Z,21.90
2018-06-17T13:55:14.833Z,21.90
2018-06-17T13:57:49.999Z,21.30
2018-06-17T14:00:25.057Z,21.00
2018-06-17T14:05:34.932Z,21.60
2018-06-17T14:08:10.033Z,21.80
2018-06-17T14:10:45.158Z,21.90
2018-06-17T14:13:20.320Z,22.10
2018-06-17T14:15:55.412Z,22.10
2018-06-17T14:18:30.560Z,22.20
2018-06-17T14:21:05.572Z,22.00
2018-06-17T14:23:40.627Z,22.00
2018-06-17T14:26:15.584Z,21.80
2018-06-17T14:28:50.698Z,21.70
2018-06-17T14:31:25.706Z,21.60
2018-06-17T14:34:00.828Z,21.30
2018-06-17T14:36:35.880Z,21.30
2018-06-17T14:39:12.256Z,21.50
2018-06-17T14:41:51.661Z,21.60
2018-06-17T14:44:32.072Z,21.80
2018-06-17T14:47:12.412Z,21.80
2018-06-17T14:50:50.369Z,22.00
2018-06-17T14:53:25.364Z,21.80
2018-06-17T14:56:00.576Z,21.80
2018-06-17T14:58:35.540Z,21.70
2018-06-17T15:01:10.498Z,21.70
2018-06-17T15:03:45.580Z,22.00
2018-06-17T15:06:20.668Z,22.20
2018-06-17T15:08:55.799Z,21.80
2018-06-17T15:11:30.828Z,21.90
2018-06-17T15:14:05.872Z,22.00
2018-06-17T15:19:15.745Z,22.10
2018-06-17T15:21:50.874Z,22.00
2018-06-17T15:24:26.049Z,22.00
2018-06-17T15:27:01.060Z,22.10
2018-06-17T15:29:36.168Z,21.90
2018-06-17T15:32:16.688Z,21.90
2018-06-17T15:34:57.192Z,22.20
2018-06-17T15:37:37.499Z,22.40
2018-06-17T15:40:12.441Z,22.50
2018-06-17T15:42:47.561Z,22.60
2018-06-17T15:47:57.268Z,22.30
2018-06-17T15:50:32.301Z,22.30
2018-06-17T15:53:07.248Z,22.60
2018-06-17T15:55:42.440Z,22.60
2018-06-17T15:58:17.495Z,22.60
2018-06-17T16:00:52.507Z,22.60
2018-06-17T16:03:27.592Z,22.40
2018-06-17T16:06:02.664Z,22.20
2018-06-17T16:08:37.732Z,22.30
2018-06-17T16:11:13.005Z,22.40
2018-06-17T16:13:53.463Z,22.50
2018-06-17T16:16:33.692Z,22.50
2018-06-17T16:19:14.293Z,21.90
2018-06-17T16:21:50.696Z,21.70
2018-06-17T16:24:25.757Z,21.80
2018-06-17T16:27:00.857Z,21.90
2018-06-17T16:29:36.089Z,21.70
2018-06-17T16:32:11.117Z,22.00
2018-06-17T16:34:46.272Z,22.20
2018-06-17T16:37:21.288Z,22.10
2018-06-17T16:39:56.308Z,22.00
2018-06-17T16:42:31.456Z,22.00
2018-06-17T16:45:06.603Z,22.00
2018-06-17T16:47:41.676Z,22.10
2018-06-17T16:50:16.665Z,22.00
2018-06-17T16:52:57.189Z,21.70
2018-06-17T16:58:18.140Z,21.70
2018-06-17T17:00:53.220Z,21.30
2018-06-17T17:03:28.231Z,21.30
2018-06-17T17:08:37.944Z,21.40
2018-06-17T17:11:13.036Z,21.20
2018-06-17T17:13:48.087Z,21.20
2018-06-17T17:16:23.224Z,21.40
2018-06-17T17:18:58.412Z,21.30
2018-06-17T17:21:33.345Z,20.90
2018-06-17T17:24:08.476Z,21.20
2018-06-17T17:26:43.416Z,21.50
2018-06-17T17:29:18.495Z,21.60
2018-06-17T17:31:59.195Z,21.60
2018-06-17T17:34:39.676Z,21.50
2018-06-17T17:37:20.080Z,21.40
2018-06-17T17:45:15.224Z,21.20
2018-06-17T17:47:50.394Z,21.30
2018-06-17T17:50:25.420Z,21.10
2018-06-17T17:53:00.488Z,21.20
2018-06-17T17:55:35.556Z,21.10
2018-06-17T17:58:10.589Z,21.20
2018-06-17T18:00:45.716Z,21.20
2018-06-17T18:03:20.804Z,21.10
2018-06-17T18:05:55.748Z,20.70
2018-06-17T18:08:30.863Z,20.70
2018-06-17T18:11:06.188Z,20.60
2018-06-17T18:16:15.915Z,20.70
2018-06-17T18:18:51.030Z,20.60
2018-06-17T18:21:26.217Z,20.80
2018-06-17T18:24:01.292Z,20.50
2018-06-17T18:26:41.728Z,20.50
2018-06-17T18:29:22.419Z,20.30
2018-06-17T18:32:03.086Z,20.20
2018-06-17T18:34:43.364Z,20.10
2018-06-17T18:39:53.616Z,19.90
2018-06-17T18:42:28.721Z,20.00
2018-06-17T18:45:04.046Z,20.10
2018-06-17T18:47:39.185Z,20.20
2018-06-17T18:52:48.972Z,20.00
2018-06-17T18:55:25.212Z,20.20
2018-06-17T18:58:00.284Z,20.20
2018-06-17T19:03:10.041Z,19.80
2018-06-17T19:08:25.014Z,19.80
2018-06-17T19:11:05.557Z,20.00
2018-06-17T19:13:46.199Z,20.20
2018-06-17T19:16:26.868Z,20.20
2018-06-17T19:19:02.024Z,20.30
2018-06-17T19:21:37.125Z,20.30
2018-06-17T19:24:12.201Z,20.40
2018-06-17T19:29:22.016Z,20.10
2018-06-17T19:31:57.045Z,20.10
2018-06-17T19:34:32.089Z,19.80
2018-06-17T19:37:07.208Z,19.70
2018-06-17T19:39:42.206Z,19.20
2018-06-17T19:42:17.328Z,19.40
2018-06-17T19:44:52.419Z,19.40
2018-06-17T19:47:27.463Z,19.30
2018-06-17T19:50:08.064Z,19.30
2018-06-17T19:52:48.595Z,19.40
2018-06-17T19:55:29.092Z,19.40
2018-06-17T19:58:09.743Z,19.60
2018-06-17T20:00:46.509Z,19.50
2018-06-17T20:03:21.372Z,19.60
2018-06-17T20:05:56.520Z,19.20
2018-06-17T20:08:31.449Z,19.30
2018-06-17T20:11:06.712Z,19.10
2018-06-17T20:13:41.663Z,18.90
2018-06-17T20:16:16.668Z,18.90
2018-06-17T20:18:51.848Z,18.80
2018-06-17T20:21:27.208Z,19.00
2018-06-17T20:24:02.346Z,18.80
2018-06-17T20:26:37.296Z,18.70
2018-06-17T20:29:12.431Z,18.70
2018-06-17T20:32:55.356Z,18.70
2018-06-17T20:35:35.701Z,18.70
2018-06-17T20:38:16.096Z,18.50
2018-06-17T20:40:56.663Z,18.60
2018-06-17T20:43:37.279Z,18.60
2018-06-17T20:46:12.409Z,18.70
2018-06-17T20:48:48.313Z,18.70
2018-06-17T20:51:23.227Z,18.80
2018-06-17T20:53:58.315Z,18.60
2018-06-17T20:56:33.390Z,18.50
2018-06-17T20:59:08.416Z,18.50
2018-06-17T21:01:43.485Z,18.50
2018-06-17T21:04:18.622Z,18.50
2018-06-17T21:06:53.755Z,18.40
2018-06-17T21:09:28.859Z,18.20
2018-06-17T21:12:03.913Z,18.10
2018-06-17T21:14:38.856Z,18.00
2018-06-17T21:17:13.902Z,18.00
2018-06-17T21:19:54.340Z,18.00
2018-06-17T21:22:34.936Z,18.10
2018-06-17T21:25:15.475Z,17.80
2018-06-17T21:27:51.668Z,17.60
2018-06-17T21:30:26.680Z,17.80
2018-06-17T21:33:01.699Z,17.20
2018-06-17T21:35:36.792Z,17.30
2018-06-17T21:38:11.811Z,17.50
2018-06-17T21:43:21.727Z,17.80
2018-06-17T21:45:56.819Z,17.60
2018-06-17T21:48:31.900Z,17.60
2018-06-17T21:51:06.996Z,17.40
2018-06-17T21:53:42.065Z,17.50
2018-06-17T21:56:17.056Z,17.10
2018-06-17T21:58:52.231Z,16.90
2018-06-17T22:01:27.233Z,17.10
2018-06-17T22:04:07.752Z,17.30
2018-06-17T22:06:42.713Z,17.30
2018-06-17T22:09:23.125Z,17.30
2018-06-17T22:12:03.520Z,17.40
2018-06-17T22:14:43.838Z,17.30
2018-06-17T22:17:24.301Z,17.30
2018-06-17T22:19:59.336Z,17.20
2018-06-17T22:22:34.327Z,17.10
2018-06-17T22:25:09.300Z,17.00
2018-06-17T22:27:44.399Z,17.10
2018-06-17T22:30:19.516Z,17.40
2018-06-17T22:32:54.671Z,17.40
2018-06-17T22:35:29.837Z,17.20
2018-06-17T22:38:04.971Z,17.40
2018-06-17T22:40:40.064Z,17.40
2018-06-17T22:43:15.021Z,17.40
2018-06-17T22:45:50.004Z,17.20
2018-06-17T22:48:25.083Z,17.30
2018-06-17T22:51:00.228Z,17.60
2018-06-17T22:53:46.635Z,17.60
2018-06-17T22:56:27.080Z,17.60
2018-06-17T22:59:07.566Z,17.30
2018-06-17T23:03:49.955Z,17.50
2018-06-17T23:06:30.510Z,17.50
2018-06-17T23:09:13.224Z,17.10
2018-06-17T23:11:48.191Z,17.20
2018-06-17T23:14:23.344Z,17.30
2018-06-17T23:16:58.590Z,17.20
2018-06-17T23:19:33.575Z,17.30
2018-06-17T23:22:08.677Z,17.50
2018-06-17T23:24:43.664Z,17.40
2018-06-17T23:27:18.848Z,17.30
2018-06-17T23:29:53.918Z,17.10
2018-06-17T23:32:28.844Z,17.40
2018-06-17T23:35:03.956Z,17.50
2018-06-17T23:37:38.971Z,17.80
2018-06-17T23:40:13.987Z,18.10
2018-06-17T23:42:48.912Z,17.90
2018-06-17T23:45:23.888Z,17.60
2018-06-17T23:48:04.501Z,17.50
2018-06-17T23:50:44.904Z,17.80
2018-06-17T23:53:25.488Z,17.90
2018-06-17T23:56:07.045Z,17.70
2018-06-17T23:58:42.152Z,17.70
